ěÝzenÝ letovÚho provozu ╚eskÚ republiky
Letiste: LKNA Aktualizace: 09.12.2022 12:29:32  UTC
 METAR LKNA 09.12. 12:30 ...
METAR LKNA 091230Z 08006KT 040V110 0600 R30/1700 -DZ FG BKN002 OVC005 01/00 Q1003 NOSIG RMK RED RED=
 TAF LKNA 09.12. 11:00 ...
TAF LKNA 091100Z 0912/1012 08008KT 1200 BR BKN003 OVC005      TEMPO 0912/0916 0700 DZ FG OVC002      TEMPO 0916/0923 0500 SN FZFG VV001      BECMG 0923/1001 34006KT 4000 BR BKN007      PROB30 TEMPO 1001/1005 2000 SN BR OVC005=
 WARNING LKNA 09.12. 10:53 ...
LKNA AD WRNG 3 VALID 091100/091400 VIS BLW 800M AND BASE BLW 200FT OBS AND FCST NC=